Terminal Aerodrome Forecast
Issued by NWS Omaha/Valley, NE

Home | Current Version | Previous Version | Text Only | Print | Product List | Glossary On
Versions: 1 2 3 4 5 6 7 8 9 10 11 12 13 14 15 16 17 18 19 20 21 22 23 24 25 26 27 28 29 30 31 32 33 34 35 36 37 38
000
FTUS43 KOAX 010751 AAA
TAFOFK
TAF AMD
KOFK 010751Z 0108/0206 29007KT P6SM SCT025 BKN150
      TEMPO 0109/0113 4SM BR
     FM011400 32008KT P6SM SCT030 SCT250
     FM011800 33010KT P6SM SCT040 BKN250
     FM020000 30005KT P6SM SCT250=

USA.gov is the U.S. government's official web portal to all federal, state and local government web resources and services.